createdAt,value
2023-05-18T00:00:02.521Z,10.60
2023-05-18T00:02:29.533Z,10.60
2023-05-18T00:04:56.991Z,10.60
2023-05-18T00:07:23.995Z,10.50
2023-05-18T00:09:51.138Z,10.50
2023-05-18T00:12:18.590Z,10.50
2023-05-18T00:14:45.542Z,10.40
2023-05-18T00:17:12.433Z,10.50
2023-05-18T00:19:40.742Z,10.50
2023-05-18T00:22:08.072Z,10.50
2023-05-18T00:24:37.140Z,10.40
2023-05-18T00:27:04.309Z,10.40
2023-05-18T00:29:31.292Z,10.40
2023-05-18T00:31:58.322Z,10.30
2023-05-18T00:34:25.293Z,10.30
2023-05-18T00:36:52.234Z,10.20
2023-05-18T00:39:19.438Z,10.20
2023-05-18T00:41:46.609Z,10.20
2023-05-18T00:44:14.522Z,10.20
2023-05-18T00:46:44.204Z,10.20
2023-05-18T00:49:11.373Z,10.20
2023-05-18T00:51:38.392Z,10.20
2023-05-18T00:54:06.445Z,10.20
2023-05-18T00:56:36.220Z,10.10
2023-05-18T00:59:03.566Z,10.10
2023-05-18T01:01:31.661Z,10.10
2023-05-18T01:04:02.556Z,10.00
2023-05-18T01:06:36.492Z,10.00
2023-05-18T01:09:05.434Z,10.00
2023-05-18T01:11:38.734Z,9.90
2023-05-18T01:14:20.268Z,9.90
2023-05-18T01:17:06.363Z,9.90
2023-05-18T01:19:51.937Z,9.90
2023-05-18T01:22:49.422Z,9.90
2023-05-18T01:25:19.877Z,9.90
2023-05-18T01:27:47.412Z,9.90
2023-05-18T01:30:18.310Z,9.90
2023-05-18T01:32:47.204Z,9.80
2023-05-18T01:35:20.121Z,9.80
2023-05-18T01:37:48.652Z,9.80
2023-05-18T01:40:15.647Z,9.80
2023-05-18T01:42:47.020Z,9.80
2023-05-18T01:45:18.914Z,9.80
2023-05-18T01:47:45.954Z,9.70
2023-05-18T01:50:18.744Z,9.70
2023-05-18T01:53:00.811Z,9.70
2023-05-18T01:55:28.193Z,9.60
2023-05-18T01:57:55.402Z,9.60
2023-05-18T02:00:28.436Z,9.60
2023-05-18T02:02:55.905Z,9.60
2023-05-18T02:05:22.888Z,9.60
2023-05-18T02:07:50.038Z,9.50
2023-05-18T02:10:17.009Z,9.50
2023-05-18T02:12:43.972Z,9.50
2023-05-18T02:15:11.125Z,9.50
2023-05-18T02:17:38.293Z,9.50
2023-05-18T02:20:10.143Z,9.40
2023-05-18T02:22:37.173Z,9.40
2023-05-18T02:25:05.289Z,9.40
2023-05-18T02:27:33.542Z,9.40
2023-05-18T02:30:00.543Z,9.40
2023-05-18T02:32:28.051Z,9.40
2023-05-18T02:34:55.002Z,9.40
2023-05-18T02:37:23.366Z,9.40
2023-05-18T02:39:50.756Z,9.40
2023-05-18T02:42:17.668Z,9.30
2023-05-18T02:44:44.537Z,9.30
2023-05-18T02:47:11.527Z,9.30
2023-05-18T02:49:38.524Z,9.30
2023-05-18T02:52:05.964Z,9.30
2023-05-18T02:54:32.945Z,9.20
2023-05-18T02:56:59.863Z,9.20
2023-05-18T02:59:27.792Z,9.20
2023-05-18T03:01:54.692Z,9.20
2023-05-18T03:04:22.037Z,9.20
2023-05-18T03:06:53.050Z,9.20
2023-05-18T03:09:20.073Z,9.20
2023-05-18T03:11:46.997Z,9.20
2023-05-18T03:14:14.046Z,9.10
2023-05-18T03:16:41.134Z,9.20
2023-05-18T03:19:08.234Z,9.20
2023-05-18T03:21:36.177Z,9.10
2023-05-18T03:24:03.572Z,9.10
2023-05-18T03:26:31.052Z,9.10
2023-05-18T03:28:58.480Z,9.00
2023-05-18T03:31:25.904Z,9.00
2023-05-18T03:33:52.896Z,8.90
2023-05-18T03:36:22.536Z,8.90
2023-05-18T03:38:49.589Z,8.90
2023-05-18T03:41:16.484Z,8.90
2023-05-18T03:43:43.412Z,8.90
2023-05-18T03:46:10.767Z,9.00
2023-05-18T03:48:37.782Z,9.00
2023-05-18T03:51:05.203Z,9.00
2023-05-18T03:53:33.804Z,9.00
2023-05-18T03:56:00.794Z,9.00
2023-05-18T03:58:27.853Z,9.00
2023-05-18T04:00:54.898Z,9.00
2023-05-18T04:03:25.124Z,9.00
2023-05-18T04:05:53.406Z,9.00
2023-05-18T04:08:20.686Z,9.00
2023-05-18T04:10:47.615Z,9.00
2023-05-18T04:13:14.482Z,9.00
2023-05-18T04:15:41.446Z,9.10
2023-05-18T04:18:08.488Z,9.10
2023-05-18T04:20:35.714Z,9.10
2023-05-18T04:23:03.746Z,9.10
2023-05-18T04:25:31.095Z,9.10
2023-05-18T04:27:58.683Z,9.10
2023-05-18T04:30:27.160Z,9.20
2023-05-18T04:32:54.794Z,9.20
2023-05-18T04:35:21.864Z,9.30
2023-05-18T04:37:48.766Z,9.40
2023-05-18T04:40:18.348Z,9.40
2023-05-18T04:42:48.265Z,9.40
2023-05-18T04:45:16.707Z,9.50
2023-05-18T04:47:46.761Z,9.40
2023-05-18T04:50:16.975Z,9.40
2023-05-18T04:52:48.564Z,9.40
2023-05-18T04:55:20.029Z,9.50
2023-05-18T04:57:47.757Z,9.60
2023-05-18T05:00:15.192Z,9.70
2023-05-18T05:02:42.279Z,9.70
2023-05-18T05:05:09.527Z,9.70
2023-05-18T05:07:36.464Z,9.70
2023-05-18T05:10:03.749Z,9.60
2023-05-18T05:12:30.660Z,9.70
2023-05-18T05:14:57.647Z,9.80
2023-05-18T05:17:25.998Z,9.80
2023-05-18T05:19:54.947Z,9.80
2023-05-18T05:22:21.908Z,9.80
2023-05-18T05:24:48.781Z,9.80
2023-05-18T05:27:15.781Z,9.80
2023-05-18T05:29:43.121Z,9.80
2023-05-18T05:32:10.055Z,9.80
2023-05-18T05:34:37.677Z,9.80
2023-05-18T05:37:04.786Z,9.90
2023-05-18T05:39:31.687Z,10.00
2023-05-18T05:41:58.595Z,10.00
2023-05-18T05:44:25.546Z,10.00
2023-05-18T05:46:52.488Z,10.10
2023-05-18T05:49:19.471Z,10.20
2023-05-18T05:51:46.482Z,10.30
2023-05-18T05:54:13.428Z,10.40
2023-05-18T05:56:40.456Z,10.40
2023-05-18T05:59:07.364Z,10.40
2023-05-18T06:01:34.944Z,10.40
2023-05-18T06:04:03.016Z,10.50
2023-05-18T06:06:30.071Z,10.50
2023-05-18T06:08:56.973Z,10.60
2023-05-18T06:11:23.921Z,10.60
2023-05-18T06:13:52.417Z,10.60
2023-05-18T06:16:19.431Z,10.60
2023-05-18T06:18:49.053Z,10.80
2023-05-18T06:21:16.230Z,10.80
2023-05-18T06:23:44.507Z,10.90
2023-05-18T06:26:11.547Z,10.80
2023-05-18T06:28:38.485Z,10.80
2023-05-18T06:31:05.679Z,10.80
2023-05-18T06:33:32.787Z,10.70
2023-05-18T06:36:00.541Z,10.70
2023-05-18T06:38:27.442Z,10.90
2023-05-18T06:40:54.372Z,11.00
2023-05-18T06:43:21.447Z,11.00
2023-05-18T06:45:48.497Z,11.00
2023-05-18T06:48:15.484Z,11.20
2023-05-18T06:50:42.425Z,11.20
2023-05-18T06:53:10.046Z,11.20
2023-05-18T06:55:37.868Z,11.30
2023-05-18T06:58:04.871Z,11.50
2023-05-18T07:00:31.866Z,11.60
2023-05-18T07:02:58.823Z,11.70
2023-05-18T07:05:27.112Z,11.50
2023-05-18T07:07:54.090Z,11.50
2023-05-18T07:10:22.710Z,11.70
2023-05-18T07:12:49.977Z,11.80
2023-05-18T07:15:16.997Z,11.80
2023-05-18T07:17:44.966Z,11.80
2023-05-18T07:20:12.059Z,11.90
2023-05-18T07:22:39.023Z,11.80
2023-05-18T07:25:09.508Z,12.00
2023-05-18T07:27:36.552Z,12.10
2023-05-18T07:30:05.978Z,12.10
2023-05-18T07:32:32.919Z,12.20
2023-05-18T07:34:59.950Z,12.30
2023-05-18T07:37:26.825Z,12.30
2023-05-18T07:39:53.747Z,12.10
2023-05-18T07:42:20.833Z,12.10
2023-05-18T07:44:47.913Z,11.90
2023-05-18T07:47:14.789Z,12.00
2023-05-18T07:49:43.111Z,12.10
2023-05-18T07:52:10.143Z,12.20
2023-05-18T07:54:37.098Z,12.10
2023-05-18T07:57:04.345Z,12.00
2023-05-18T07:59:33.321Z,12.20
2023-05-18T08:02:01.997Z,12.30
2023-05-18T08:04:29.109Z,12.50
2023-05-18T08:07:00.578Z,12.50
2023-05-18T08:09:27.622Z,12.80
2023-05-18T08:11:57.419Z,12.90
2023-05-18T08:14:24.630Z,13.00
2023-05-18T08:16:51.640Z,13.00
2023-05-18T08:19:18.777Z,13.00
2023-05-18T08:21:46.520Z,12.50
2023-05-18T08:24:14.519Z,12.60
2023-05-18T08:26:41.404Z,12.90
2023-05-18T08:29:11.189Z,13.20
2023-05-18T08:31:38.493Z,13.30
2023-05-18T08:34:06.141Z,13.60
2023-05-18T08:36:36.670Z,13.60
2023-05-18T08:39:04.588Z,13.80
2023-05-18T08:41:37.920Z,13.90
2023-05-18T08:44:22.504Z,14.10
2023-05-18T08:46:52.434Z,14.20
2023-05-18T08:49:20.833Z,14.30
2023-05-18T08:51:49.685Z,14.50
2023-05-18T08:54:23.063Z,14.50
2023-05-18T08:56:50.106Z,14.50
2023-05-18T08:59:23.759Z,14.30
2023-05-18T09:01:52.018Z,14.40
2023-05-18T09:04:19.659Z,14.30
2023-05-18T09:06:47.491Z,14.40
2023-05-18T09:09:14.731Z,14.20
2023-05-18T09:11:41.663Z,14.00
2023-05-18T09:14:08.596Z,13.80
2023-05-18T09:16:35.778Z,13.70
2023-05-18T09:19:03.034Z,13.80
2023-05-18T09:21:32.436Z,13.90
2023-05-18T09:24:00.646Z,14.00
2023-05-18T09:26:27.637Z,14.10
2023-05-18T09:28:54.720Z,14.30
2023-05-18T09:31:22.590Z,14.50
2023-05-18T09:33:51.622Z,14.70
2023-05-18T09:36:23.458Z,14.90
2023-05-18T09:38:50.352Z,15.00
2023-05-18T09:41:17.888Z,15.10
2023-05-18T09:43:46.440Z,15.10
2023-05-18T09:46:13.697Z,15.10
2023-05-18T09:48:46.083Z,14.90
2023-05-18T09:51:18.168Z,15.00
2023-05-18T09:53:49.927Z,15.20
2023-05-18T09:56:17.948Z,15.20
2023-05-18T09:58:45.756Z,15.10
2023-05-18T10:01:12.703Z,15.20
2023-05-18T10:03:41.670Z,15.10
2023-05-18T10:06:09.877Z,15.30
2023-05-18T10:08:37.712Z,15.40
2023-05-18T10:11:05.028Z,15.30
2023-05-18T10:13:32.407Z,15.40
2023-05-18T10:16:00.686Z,15.30
2023-05-18T10:18:28.749Z,15.30
2023-05-18T10:21:00.014Z,15.40
2023-05-18T10:23:29.027Z,15.50
2023-05-18T10:25:55.944Z,15.50
2023-05-18T10:28:27.517Z,15.50
2023-05-18T10:30:58.950Z,15.40
2023-05-18T10:33:30.209Z,15.40
2023-05-18T10:35:57.584Z,15.60
2023-05-18T10:38:25.915Z,15.40
2023-05-18T10:40:54.970Z,15.50
2023-05-18T10:43:27.478Z,15.40
2023-05-18T10:45:57.377Z,15.40
2023-05-18T10:48:25.490Z,15.10
2023-05-18T10:50:53.702Z,15.30
2023-05-18T10:53:36.474Z,15.30
2023-05-18T10:56:03.695Z,15.40
2023-05-18T10:58:31.125Z,15.50
2023-05-18T11:01:01.363Z,15.70
2023-05-18T11:03:28.761Z,15.60
2023-05-18T11:06:12.221Z,15.60
2023-05-18T11:08:48.490Z,15.90
2023-05-18T11:11:18.855Z,15.90
2023-05-18T11:13:51.423Z,15.90
2023-05-18T11:16:19.436Z,16.00
2023-05-18T11:18:49.586Z,15.90
2023-05-18T11:21:35.962Z,15.80
2023-05-18T11:24:23.462Z,16.00
2023-05-18T11:26:53.944Z,16.10
2023-05-18T11:29:30.045Z,16.00
2023-05-18T11:31:57.106Z,16.10
2023-05-18T11:34:45.281Z,16.30
2023-05-18T11:37:17.698Z,16.30
2023-05-18T11:40:00.003Z,15.90
2023-05-18T11:42:33.175Z,15.90
2023-05-18T11:45:09.140Z,16.00
2023-05-18T11:47:42.504Z,15.90
2023-05-18T11:50:11.840Z,16.20
2023-05-18T11:52:57.402Z,16.30
2023-05-18T11:55:24.359Z,16.50
2023-05-18T11:57:54.408Z,16.10
2023-05-18T12:00:21.623Z,16.40
2023-05-18T12:02:48.947Z,16.70
2023-05-18T12:05:16.321Z,16.70
2023-05-18T12:07:44.958Z,16.60
2023-05-18T12:10:14.670Z,16.70
2023-05-18T12:12:43.055Z,16.90
2023-05-18T12:15:11.633Z,16.90
2023-05-18T12:17:46.543Z,17.00
2023-05-18T12:20:17.678Z,17.00
2023-05-18T12:22:46.479Z,17.10
2023-05-18T12:25:13.435Z,16.90
2023-05-18T12:27:41.198Z,16.90
2023-05-18T12:30:16.970Z,16.80
2023-05-18T12:32:53.041Z,16.80
2023-05-18T12:35:26.824Z,17.00
2023-05-18T12:37:58.152Z,17.20
2023-05-18T12:40:25.110Z,17.30
2023-05-18T12:42:59.841Z,17.20
2023-05-18T12:45:28.197Z,17.10
2023-05-18T12:47:56.233Z,17.00
2023-05-18T12:50:24.998Z,16.80
2023-05-18T12:52:51.982Z,16.70
2023-05-18T12:55:25.389Z,16.50
2023-05-18T12:58:06.245Z,16.50
2023-05-18T13:00:36.681Z,16.00
2023-05-18T13:03:07.363Z,15.90
2023-05-18T13:05:34.448Z,16.20
2023-05-18T13:08:01.354Z,16.10
2023-05-18T13:10:34.621Z,16.30
2023-05-18T13:13:05.801Z,16.50
2023-05-18T13:15:38.863Z,16.50
2023-05-18T13:18:09.906Z,16.50
2023-05-18T13:20:40.857Z,16.30
2023-05-18T13:23:18.423Z,16.20
2023-05-18T13:25:46.390Z,16.20
2023-05-18T13:28:15.943Z,16.00
2023-05-18T13:30:43.056Z,16.30
2023-05-18T13:33:10.769Z,16.50
2023-05-18T13:35:38.575Z,16.30
2023-05-18T13:38:05.459Z,16.20
2023-05-18T13:40:32.440Z,16.50
2023-05-18T13:42:59.367Z,16.60
2023-05-18T13:45:26.321Z,16.40
2023-05-18T13:47:56.979Z,16.30
2023-05-18T13:50:26.062Z,16.40
2023-05-18T13:52:53.410Z,16.50
2023-05-18T13:55:20.357Z,16.80
2023-05-18T13:57:47.547Z,16.60
2023-05-18T14:00:16.057Z,16.50
2023-05-18T14:02:46.438Z,16.70
2023-05-18T14:05:13.657Z,16.90
2023-05-18T14:07:41.891Z,17.00
2023-05-18T14:10:09.809Z,16.50
2023-05-18T14:12:36.724Z,16.50
2023-05-18T14:15:04.199Z,16.50
2023-05-18T14:17:31.340Z,16.50
2023-05-18T14:19:58.454Z,16.60
2023-05-18T14:22:26.334Z,16.40
2023-05-18T14:24:53.632Z,16.30
2023-05-18T14:27:20.685Z,16.50
2023-05-18T14:29:47.992Z,16.50
2023-05-18T14:32:14.983Z,16.60
2023-05-18T14:34:41.976Z,16.40
2023-05-18T14:37:08.937Z,16.30
2023-05-18T14:39:36.092Z,16.20
2023-05-18T14:42:03.116Z,16.40
2023-05-18T14:44:30.008Z,16.50
2023-05-18T14:46:58.027Z,16.60
2023-05-18T14:49:24.969Z,16.70
2023-05-18T14:51:51.883Z,16.80
2023-05-18T14:54:19.510Z,16.50
2023-05-18T14:56:46.559Z,16.50
2023-05-18T14:59:13.465Z,16.60
2023-05-18T15:01:40.512Z,16.40
2023-05-18T15:04:07.640Z,16.30
2023-05-18T15:06:34.695Z,16.30
2023-05-18T15:09:02.054Z,16.50
2023-05-18T15:11:28.929Z,16.70
2023-05-18T15:13:56.041Z,16.70
2023-05-18T15:16:23.931Z,16.60
2023-05-18T15:18:50.989Z,16.60
2023-05-18T15:21:17.908Z,16.50
2023-05-18T15:23:44.831Z,16.50
2023-05-18T15:26:11.829Z,16.70
2023-05-18T15:28:38.860Z,16.50
2023-05-18T15:31:05.982Z,16.70
2023-05-18T15:33:36.049Z,16.40
2023-05-18T15:36:04.251Z,16.30
2023-05-18T15:38:31.168Z,16.20
2023-05-18T15:40:58.058Z,16.10
2023-05-18T15:43:26.353Z,16.30
2023-05-18T15:45:53.363Z,16.50
2023-05-18T15:48:20.253Z,16.40
2023-05-18T15:50:47.182Z,16.60
2023-05-18T15:53:16.047Z,16.50
2023-05-18T15:55:43.250Z,16.70
2023-05-18T15:58:12.209Z,16.70
2023-05-18T16:00:39.179Z,16.70
2023-05-18T16:03:06.221Z,16.60
2023-05-18T16:05:33.234Z,16.40
2023-05-18T16:08:03.267Z,16.10
2023-05-18T16:10:32.545Z,16.20
2023-05-18T16:13:05.625Z,16.30
2023-05-18T16:15:36.721Z,16.20
2023-05-18T16:18:04.012Z,16.30
2023-05-18T16:20:31.141Z,16.60
2023-05-18T16:23:00.324Z,16.80
2023-05-18T16:25:29.024Z,16.80
2023-05-18T16:27:56.452Z,16.60
2023-05-18T16:30:23.471Z,16.50
2023-05-18T16:32:50.610Z,16.60
2023-05-18T16:35:17.618Z,16.70
2023-05-18T16:37:44.554Z,16.80
2023-05-18T16:40:11.729Z,16.60
2023-05-18T16:42:38.652Z,16.90
2023-05-18T16:45:05.894Z,17.20
2023-05-18T16:47:33.085Z,17.00
2023-05-18T16:50:00.505Z,17.10
2023-05-18T16:52:28.588Z,17.60
2023-05-18T16:54:55.542Z,18.00
2023-05-18T16:57:22.492Z,17.70
2023-05-18T16:59:49.389Z,17.50
2023-05-18T17:02:17.826Z,17.50
2023-05-18T17:04:49.737Z,17.70
2023-05-18T17:07:16.896Z,17.70
2023-05-18T17:09:43.886Z,17.60
2023-05-18T17:12:11.331Z,17.40
2023-05-18T17:14:38.351Z,17.20
2023-05-18T17:17:06.025Z,16.70
2023-05-18T17:19:35.043Z,16.80
2023-05-18T17:22:03.053Z,17.30
2023-05-18T17:24:30.138Z,16.90
2023-05-18T17:26:57.080Z,16.60
2023-05-18T17:29:24.176Z,16.00
2023-05-18T17:31:51.221Z,15.60
2023-05-18T17:34:18.188Z,15.00
2023-05-18T17:36:45.845Z,14.70
2023-05-18T17:39:13.136Z,14.40
2023-05-18T17:41:40.047Z,14.20
2023-05-18T17:44:07.151Z,14.10
2023-05-18T17:46:35.107Z,14.10
2023-05-18T17:49:05.058Z,14.00
2023-05-18T17:51:32.052Z,13.80
2023-05-18T17:53:58.953Z,14.00
2023-05-18T17:56:31.923Z,13.90
2023-05-18T17:58:59.464Z,13.70
2023-05-18T18:01:27.112Z,13.70
2023-05-18T18:03:54.527Z,13.70
2023-05-18T18:06:24.310Z,13.60
2023-05-18T18:08:55.775Z,13.50
2023-05-18T18:11:22.923Z,13.50
2023-05-18T18:13:50.057Z,13.50
2023-05-18T18:16:17.892Z,13.40
2023-05-18T18:18:45.164Z,13.40
2023-05-18T18:21:12.216Z,13.40
2023-05-18T18:23:40.108Z,13.40
2023-05-18T18:26:07.556Z,13.40
2023-05-18T18:28:34.607Z,13.40
2023-05-18T18:31:03.482Z,13.30
2023-05-18T18:33:30.652Z,13.30
2023-05-18T18:35:57.733Z,13.30
2023-05-18T18:38:27.001Z,13.20
2023-05-18T18:40:59.926Z,13.20
2023-05-18T18:43:27.841Z,13.10
2023-05-18T18:45:55.909Z,13.00
2023-05-18T18:48:23.603Z,13.00
2023-05-18T18:50:50.545Z,12.90
2023-05-18T18:53:17.514Z,12.90
2023-05-18T18:55:44.565Z,12.90
2023-05-18T18:58:11.537Z,12.90
2023-05-18T19:00:38.473Z,12.80
2023-05-18T19:03:05.598Z,12.80
2023-05-18T19:05:32.879Z,12.80
2023-05-18T19:08:01.788Z,12.80
2023-05-18T19:10:28.786Z,12.80
2023-05-18T19:12:59.373Z,12.70
2023-05-18T19:15:26.529Z,12.80
2023-05-18T19:17:53.973Z,12.70
2023-05-18T19:20:21.313Z,12.70
2023-05-18T19:22:48.263Z,12.60
2023-05-18T19:25:16.541Z,12.60
2023-05-18T19:27:43.502Z,12.70
2023-05-18T19:30:12.405Z,12.70
2023-05-18T19:32:40.631Z,12.60
2023-05-18T19:35:08.621Z,12.60
2023-05-18T19:37:35.696Z,12.70
2023-05-18T19:40:02.664Z,12.60
2023-05-18T19:42:29.638Z,12.60
2023-05-18T19:44:56.611Z,12.50
2023-05-18T19:47:23.779Z,12.40
2023-05-18T19:49:50.772Z,12.40
2023-05-18T19:52:19.886Z,12.40
2023-05-18T19:54:46.775Z,12.50
2023-05-18T19:57:13.720Z,12.50
2023-05-18T19:59:40.775Z,12.40
2023-05-18T20:02:08.322Z,12.40
2023-05-18T20:04:36.348Z,12.40
2023-05-18T20:07:03.301Z,12.40
2023-05-18T20:09:30.934Z,12.40
2023-05-18T20:11:58.791Z,12.30
2023-05-18T20:14:27.042Z,12.30
2023-05-18T20:16:56.300Z,12.30
2023-05-18T20:19:23.450Z,12.30
2023-05-18T20:21:50.504Z,12.30
2023-05-18T20:24:17.410Z,12.30
2023-05-18T20:26:44.504Z,12.30
2023-05-18T20:29:12.618Z,12.30
2023-05-18T20:31:40.257Z,12.20
2023-05-18T20:34:08.298Z,12.20
2023-05-18T20:36:36.255Z,12.20
2023-05-18T20:39:03.964Z,12.20
2023-05-18T20:41:30.855Z,12.20
2023-05-18T20:44:01.993Z,12.20
2023-05-18T20:46:31.153Z,12.10
2023-05-18T20:48:58.309Z,12.10
2023-05-18T20:51:25.818Z,12.20
2023-05-18T20:53:52.707Z,12.20
2023-05-18T20:56:21.941Z,12.20
2023-05-18T20:58:50.141Z,12.20
2023-05-18T21:01:18.575Z,12.20
2023-05-18T21:03:46.065Z,12.20
2023-05-18T21:06:14.068Z,12.20
2023-05-18T21:08:41.347Z,12.20
2023-05-18T21:11:08.325Z,12.20
2023-05-18T21:13:37.096Z,12.30
2023-05-18T21:16:06.712Z,12.20
2023-05-18T21:18:34.591Z,12.20
2023-05-18T21:21:04.813Z,12.20
2023-05-18T21:23:31.802Z,12.30
2023-05-18T21:25:59.857Z,12.20
2023-05-18T21:28:26.831Z,12.20
2023-05-18T21:30:54.693Z,12.30
2023-05-18T21:33:21.944Z,12.30
2023-05-18T21:35:48.918Z,12.30
2023-05-18T21:38:16.780Z,12.30
2023-05-18T21:40:44.267Z,12.30
2023-05-18T21:43:11.387Z,12.30
2023-05-18T21:45:38.906Z,12.30
2023-05-18T21:48:06.369Z,12.30
2023-05-18T21:50:35.112Z,12.30
2023-05-18T21:53:03.691Z,12.40
2023-05-18T21:55:31.600Z,12.30
2023-05-18T21:57:58.625Z,12.30
2023-05-18T22:00:28.557Z,12.30
2023-05-18T22:02:55.700Z,12.30
2023-05-18T22:05:22.804Z,12.30
2023-05-18T22:07:49.828Z,12.30
2023-05-18T22:10:18.226Z,12.40
2023-05-18T22:12:45.352Z,12.30
2023-05-18T22:15:12.494Z,12.30
2023-05-18T22:17:39.732Z,12.40
2023-05-18T22:20:11.936Z,12.30
2023-05-18T22:22:40.371Z,12.30
2023-05-18T22:25:07.806Z,12.30
2023-05-18T22:27:36.658Z,12.30
2023-05-18T22:30:08.132Z,12.30
2023-05-18T22:32:35.173Z,12.30
2023-05-18T22:35:02.893Z,12.30
2023-05-18T22:37:29.846Z,12.30
2023-05-18T22:39:56.791Z,12.30
2023-05-18T22:42:23.780Z,12.30
2023-05-18T22:44:52.705Z,12.30
2023-05-18T22:47:23.827Z,12.20
2023-05-18T22:49:51.925Z,12.30
2023-05-18T22:52:21.309Z,12.30
2023-05-18T22:54:48.286Z,12.30
2023-05-18T22:57:15.364Z,12.20
2023-05-18T22:59:42.243Z,12.20
2023-05-18T23:02:09.189Z,12.20
2023-05-18T23:04:36.262Z,12.20
2023-05-18T23:07:04.277Z,12.20
2023-05-18T23:09:32.267Z,12.30
2023-05-18T23:12:01.313Z,12.20
2023-05-18T23:14:31.332Z,12.20
2023-05-18T23:17:02.719Z,12.20
2023-05-18T23:19:29.633Z,12.20
2023-05-18T23:21:56.868Z,12.20
2023-05-18T23:24:23.800Z,12.20
2023-05-18T23:26:50.859Z,12.20
2023-05-18T23:29:17.827Z,12.20
2023-05-18T23:31:44.843Z,12.10
2023-05-18T23:34:12.905Z,12.10
2023-05-18T23:36:42.960Z,12.10
2023-05-18T23:39:10.187Z,12.00
2023-05-18T23:41:37.381Z,12.00
2023-05-18T23:44:04.689Z,12.00
2023-05-18T23:46:32.815Z,12.00
2023-05-18T23:49:00.063Z,12.00
2023-05-18T23:51:29.688Z,12.00
2023-05-18T23:53:58.054Z,11.90
2023-05-18T23:56:25.327Z,11.80
2023-05-18T23:58:52.479Z,11.80
